Time;durP1;ratioP1;P1;durP2;ratioP2;P2;SDS_P1;SDS_P2;PMS_P1;PMS_P2;Temp;Humidity;BMP_temperature;BMP_pressure;BME280_temperature;BME280_humidity;BME280_pressure;Samples;Min_cycle;Max_cycle;Signal;HPM_P1;HPM_P2
2021/10/18 00:01:58;;;;;;;20.80;10.18;;;;;;;10.95;69.15;101998.22;10260391;28;20135;-70
2021/10/18 00:06:55;;;;;;;16.05;9.32;;;;;;;10.90;68.59;102003.75;10260879;28;20463;-69
2021/10/18 00:11:52;;;;;;;18.83;9.48;;;;;;;10.90;69.08;101990.06;10252632;28;20495;-69
2021/10/18 00:16:48;;;;;;;16.13;9.02;;;;;;;10.95;69.13;101987.28;10260414;28;20036;-69
2021/10/18 00:21:45;;;;;;;15.90;9.07;;;;;;;10.97;69.26;101985.06;10251461;28;20045;-70
2021/10/18 00:26:41;;;;;;;16.23;9.07;;;;;;;10.91;68.14;101984.31;10245303;28;20069;-69
2021/10/18 00:31:38;;;;;;;15.02;9.15;;;;;;;10.94;68.28;102002.09;10230287;28;20140;-70
2021/10/18 00:36:34;;;;;;;12.38;8.38;;;;;;;10.93;68.10;102000.44;10245092;28;20037;-69
2021/10/18 00:41:31;;;;;;;17.60;8.20;;;;;;;10.95;68.02;102014.66;10226261;28;20046;-69
2021/10/18 00:46:29;;;;;;;18.23;9.57;;;;;;;10.88;67.86;102019.63;10231257;28;20098;-69
2021/10/18 00:51:28;;;;;;;15.43;9.30;;;;;;;10.88;67.66;102014.16;10265433;28;20041;-70
2021/10/18 00:56:25;;;;;;;14.20;8.00;;;;;;;10.90;68.31;102017.44;10257997;28;20056;-72
2021/10/18 01:01:22;;;;;;;14.90;8.48;;;;;;;10.83;68.16;102016.97;10263909;28;20050;-69
2021/10/18 01:06:20;;;;;;;16.98;9.57;;;;;;;10.80;68.00;102012.06;11389082;22;20550;-68
2021/10/18 01:11:16;;;;;;;17.60;9.90;;;;;;;10.76;68.92;102016.47;10307919;28;20094;-68
2021/10/18 01:16:14;;;;;;;17.52;9.70;;;;;;;10.82;68.59;102002.47;10301736;28;20044;-69
2021/10/18 01:21:11;;;;;;;16.00;8.73;;;;;;;10.81;68.71;102008.22;10296212;28;20383;-71
2021/10/18 01:26:07;;;;;;;21.30;9.98;;;;;;;10.78;69.15;102008.81;10308418;28;20098;-67
2021/10/18 01:31:04;;;;;;;18.95;10.48;;;;;;;10.86;68.74;102021.84;10290207;28;20076;-68
2021/10/18 01:36:00;;;;;;;19.73;9.57;;;;;;;10.85;68.78;102014.75;10298332;28;20086;-68
2021/10/18 01:40:57;;;;;;;20.38;9.75;;;;;;;10.88;68.81;102023.19;10305145;28;20072;-68
2021/10/18 01:45:53;;;;;;;18.88;9.27;;;;;;;10.86;68.18;102021.84;10299190;28;20072;-69
2021/10/18 01:50:50;;;;;;;15.68;10.10;;;;;;;10.85;68.44;102014.75;10300823;28;20136;-70
2021/10/18 01:55:46;;;;;;;16.77;9.50;;;;;;;10.86;68.70;102005.44;10301036;28;20081;-67
2021/10/18 02:00:43;;;;;;;17.20;9.85;;;;;;;10.85;68.97;101990.13;10294658;28;20064;-68
2021/10/18 02:05:40;;;;;;;20.60;9.90;;;;;;;10.78;68.51;101986.91;10298508;28;20132;-67
2021/10/18 02:10:36;;;;;;;17.90;9.93;;;;;;;10.73;69.21;101996.00;10301499;28;20178;-68
2021/10/18 02:15:33;;;;;;;17.52;9.38;;;;;;;10.66;69.38;101992.78;10295862;28;20051;-68
2021/10/18 02:20:30;;;;;;;19.30;10.57;;;;;;;10.61;69.73;101982.69;10303003;28;20173;-68
2021/10/18 02:25:26;;;;;;;15.05;10.15;;;;;;;10.60;69.43;101978.31;10305977;28;20041;-70
2021/10/18 02:30:23;;;;;;;21.50;10.35;;;;;;;10.61;69.95;101982.69;10306173;28;20102;-70
2021/10/18 02:35:19;;;;;;;19.40;11.70;;;;;;;10.62;70.12;101978.84;10299965;28;20110;-68
2021/10/18 02:40:16;;;;;;;24.15;10.77;;;;;;;10.63;69.75;101975.03;10307311;28;20045;-70
2021/10/18 02:45:12;;;;;;;19.23;11.23;;;;;;;10.63;69.66;101985.97;10294994;28;20078;-66
2021/10/18 02:50:09;;;;;;;19.08;10.48;;;;;;;10.63;70.35;101985.97;10300512;28;20098;-68
2021/10/18 02:55:06;;;;;;;19.45;10.15;;;;;;;10.64;70.62;101987.56;10305035;28;20102;-68
2021/10/18 03:00:04;;;;;;;18.70;9.98;;;;;;;10.63;69.90;101996.06;10297924;28;20489;-69
2021/10/18 03:05:01;;;;;;;16.13;10.90;;;;;;;10.68;69.93;101994.13;10308025;28;20052;-69
2021/10/18 03:09:57;;;;;;;19.17;11.55;;;;;;;10.68;69.38;101998.78;10292772;28;20087;-69
2021/10/18 03:14:53;;;;;;;19.42;11.25;;;;;;;10.70;69.79;102002.84;10292396;28;20101;-69
2021/10/18 03:19:50;;;;;;;18.27;9.65;;;;;;;10.66;69.70;101996.31;10294134;28;20117;-69
2021/10/18 03:24:46;;;;;;;19.02;11.23;;;;;;;10.61;69.98;101993.63;10297316;28;20104;-69
2021/10/18 03:29:43;;;;;;;19.08;10.45;;;;;;;10.62;69.98;101999.91;10306899;28;20075;-69
2021/10/18 03:34:39;;;;;;;18.35;10.15;;;;;;;10.60;69.55;102004.84;10303780;28;20080;-70
2021/10/18 03:39:36;;;;;;;19.30;11.40;;;;;;;10.61;69.44;102001.03;10307476;28;20041;-71
2021/10/18 03:44:32;;;;;;;19.00;10.75;;;;;;;10.59;69.29;101998.56;10308788;28;20071;-70
2021/10/18 03:49:29;;;;;;;17.20;11.38;;;;;;;10.59;69.62;102009.50;10300795;28;20620;-70
2021/10/18 03:54:26;;;;;;;20.77;12.02;;;;;;;10.59;69.85;102006.78;10304496;28;20456;-69
2021/10/18 03:59:22;;;;;;;17.42;11.23;;;;;;;10.59;70.18;102006.78;10297799;28;20064;-69
2021/10/18 04:04:19;;;;;;;17.98;10.13;;;;;;;10.59;69.61;102006.78;10306723;28;20048;-69
2021/10/18 04:09:15;;;;;;;19.13;10.60;;;;;;;10.59;69.96;102001.31;10294316;28;20073;-69
2021/10/18 04:14:12;;;;;;;15.65;10.38;;;;;;;10.63;69.50;102005.09;10298927;28;20568;-69
2021/10/18 04:19:08;;;;;;;21.73;11.50;;;;;;;10.61;69.65;102010.03;10303941;28;20102;-70
2021/10/18 04:24:05;;;;;;;19.25;10.27;;;;;;;10.65;69.60;102011.09;10303460;28;20075;-70
2021/10/18 04:29:04;;;;;;;18.40;11.15;;;;;;;10.65;69.52;102015.75;10305698;28;20068;-69
2021/10/18 04:34:01;;;;;;;18.65;10.00;;;;;;;10.68;69.20;102010.53;10301527;28;20125;-72
2021/10/18 04:38:57;;;;;;;16.27;9.98;;;;;;;10.71;69.56;102015.41;10304679;28;20506;-71
2021/10/18 04:43:54;;;;;;;16.20;10.82;;;;;;;10.71;69.65;102004.47;10295427;28;20040;-71
2021/10/18 04:48:50;;;;;;;20.75;10.75;;;;;;;10.66;69.63;102015.47;10290122;28;20471;-71
2021/10/18 04:53:48;;;;;;;16.58;10.13;;;;;;;10.73;69.83;102012.41;10312067;28;20063;-72
2021/10/18 04:58:44;;;;;;;18.77;10.23;;;;;;;10.77;69.46;102015.34;10297895;28;20040;-72
2021/10/18 05:03:41;;;;;;;19.90;10.65;;;;;;;10.78;69.30;102033.44;10282290;28;20140;-72
2021/10/18 05:08:37;;;;;;;18.58;11.27;;;;;;;10.81;69.62;102038.31;10286470;28;20148;-73
2021/10/18 05:13:36;;;;;;;22.98;12.02;;;;;;;10.83;69.60;102044.31;10281625;28;20048;-73
2021/10/18 05:18:33;;;;;;;19.83;11.43;;;;;;;10.80;69.75;102055.84;10290958;28;20048;-73
2021/10/18 05:23:29;;;;;;;21.17;11.60;;;;;;;10.80;69.31;102039.44;10291289;28;20109;-73
2021/10/18 05:28:32;;;;;;;24.58;11.30;;;;;;;10.85;69.22;102047.59;10300116;28;20047;-72
2021/10/18 05:33:28;;;;;;;22.52;12.85;;;;;;;10.84;69.53;102040.50;10295223;28;20469;-73
2021/10/18 05:38:25;;;;;;;17.90;11.27;;;;;;;10.82;69.00;102045.44;10300822;28;20079;-72
2021/10/18 05:43:21;;;;;;;20.67;12.63;;;;;;;10.81;69.42;102046.53;10297693;28;20425;-71
2021/10/18 05:48:19;;;;;;;18.33;11.73;;;;;;;10.81;69.50;102046.53;10294936;28;20037;-71
2021/10/18 05:53:15;;;;;;;20.98;10.77;;;;;;;10.78;69.67;102052.56;10300997;28;20119;-72
2021/10/18 05:58:12;;;;;;;19.50;11.48;;;;;;;10.76;69.15;102047.38;10278477;28;20069;-71
2021/10/18 06:03:10;;;;;;;19.80;10.88;;;;;;;10.79;69.41;102060.50;10279896;28;20068;-71
2021/10/18 06:08:07;;;;;;;23.73;12.23;;;;;;;10.82;69.55;102061.84;10289681;28;20036;-72
2021/10/18 06:13:05;;;;;;;19.50;11.13;;;;;;;10.88;69.47;102074.38;10293439;28;20045;-73
2021/10/18 06:18:12;;;;;;;16.98;10.73;;;;;;;10.89;69.18;102081.50;10283847;28;20061;-72
2021/10/18 06:23:15;;;;;;;20.20;10.18;;;;;;;10.91;69.16;102079.28;10290381;28;20521;-72
2021/10/18 06:28:13;;;;;;;19.58;11.32;;;;;;;10.91;68.34;102082.03;10293698;28;20044;-73
2021/10/18 06:33:10;;;;;;;18.60;10.27;;;;;;;10.89;67.79;102092.44;10278470;28;20041;-72
2021/10/18 06:38:14;;;;;;;18.42;11.25;;;;;;;10.84;67.56;102098.75;10291974;28;20068;-73
2021/10/18 06:43:11;;;;;;;20.52;12.13;;;;;;;10.81;67.38;102095.78;10293592;28;20071;-72
2021/10/18 06:48:08;;;;;;;21.45;11.38;;;;;;;10.81;67.05;102090.28;10290449;28;20114;-73
2021/10/18 06:53:39;;;;;;;19.35;11.10;;;;;;;10.85;67.30;102107.78;10304545;28;20102;-73
2021/10/18 06:58:28;;;;;;;20.98;10.32;;;;;;;10.95;66.79;102113.16;10282931;28;20060;-72
2021/10/18 07:03:24;;;;;;;19.20;11.45;;;;;;;11.01;67.59;102117.50;10300029;28;20041;-72
2021/10/18 07:08:21;;;;;;;19.80;11.23;;;;;;;11.07;66.95;102127.31;10293784;28;20105;-72
2021/10/18 07:13:18;;;;;;;17.02;10.77;;;;;;;11.10;66.82;102134.94;10300655;28;20543;-72
2021/10/18 07:18:14;;;;;;;19.15;9.65;;;;;;;11.13;66.47;102131.63;10304731;28;20498;-72
2021/10/18 07:23:11;;;;;;;16.85;11.23;;;;;;;11.11;66.47;102139.28;10312238;28;20106;-71
2021/10/18 07:28:08;;;;;;;18.77;10.25;;;;;;;11.08;66.35;102139.06;10299070;28;20068;-71
2021/10/18 07:33:05;;;;;;;17.02;10.50;;;;;;;11.07;66.84;102138.25;10290888;28;20132;-73
2021/10/18 07:38:04;;;;;;;17.88;10.02;;;;;;;11.06;66.52;102142.09;10299500;28;20086;-71
2021/10/18 07:43:01;;;;;;;15.85;10.07;;;;;;;11.18;66.06;102149.13;10306025;28;20052;-72
2021/10/18 07:47:58;;;;;;;18.58;9.82;;;;;;;11.18;66.02;102155.41;10301102;28;20041;-72
2021/10/18 07:52:55;;;;;;;15.85;9.32;;;;;;;11.23;66.16;102154.53;10297004;28;20052;-73
2021/10/18 07:57:51;;;;;;;17.55;9.45;;;;;;;11.25;66.21;102155.06;10292142;28;20163;-72
2021/10/18 08:02:47;;;;;;;16.77;10.18;;;;;;;11.30;65.79;102158.59;10298447;28;20045;-72
2021/10/18 08:07:47;;;;;;;17.67;9.77;;;;;;;11.39;66.25;102172.47;10291255;28;20036;-73
2021/10/18 08:12:44;;;;;;;14.77;9.00;;;;;;;11.47;66.11;102185.56;10311689;28;20047;-73
2021/10/18 08:17:40;;;;;;;17.55;10.38;;;;;;;11.45;65.30;102182.28;10290445;28;20037;-73
2021/10/18 08:22:37;;;;;;;16.33;10.10;;;;;;;11.47;65.26;102180.06;10310006;28;20131;-71
2021/10/18 08:27:33;;;;;;;16.80;9.93;;;;;;;11.51;65.35;102181.13;10298592;28;20564;-73
2021/10/18 08:32:30;;;;;;;15.95;10.18;;;;;;;11.55;65.22;102182.16;10292676;28;20474;-73
2021/10/18 08:38:17;;;;;;;16.90;8.95;;;;;;;11.70;64.77;102177.66;10286750;28;20071;-73
2021/10/18 08:47:53;;;;;;;15.75;8.43;;;;;;;11.83;64.89;102171.47;10283451;28;20124;-72
2021/10/18 08:52:49;;;;;;;18.35;8.85;;;;;;;11.87;64.97;102189.00;10287652;28;20068;-73
2021/10/18 08:57:47;;;;;;;16.20;9.02;;;;;;;11.85;64.89;102182.97;10292522;28;20037;-73
2021/10/18 09:02:44;;;;;;;15.15;9.48;;;;;;;11.91;65.15;102184.59;10282874;28;20076;-72
2021/10/18 09:07:41;;;;;;;17.77;9.45;;;;;;;11.91;64.70;102198.28;10297149;28;20690;-72
2021/10/18 09:12:40;;;;;;;15.05;9.20;;;;;;;11.89;64.88;102197.75;10302470;28;20502;-73
2021/10/18 09:17:37;;;;;;;13.07;8.45;;;;;;;11.85;64.83;102195.88;10289382;28;20041;-73
2021/10/18 09:22:34;;;;;;;13.88;8.98;;;;;;;11.79;64.91;102192.38;10287475;28;20079;-72
2021/10/18 09:27:31;;;;;;;16.70;9.07;;;;;;;11.86;64.88;102206.53;10285564;28;20200;-72
2021/10/18 09:32:30;;;;;;;14.63;8.65;;;;;;;11.98;65.12;102206.97;10280879;28;20088;-71
2021/10/18 09:37:38;;;;;;;15.40;9.60;;;;;;;12.06;65.39;102212.94;10274705;28;20045;-72
2021/10/18 09:42:34;;;;;;;15.68;8.38;;;;;;;12.00;64.54;102215.75;10278189;28;20528;-71
2021/10/18 10:52:11;;;;;;;13.50;8.52;;;;;;;13.05;61.49;102195.69;10287878;28;20140;-71
2021/10/18 10:57:12;;;;;;;13.18;7.13;;;;;;;13.16;60.12;102186.19;10276364;28;20094;-71
2021/10/18 11:02:09;;;;;;;14.88;7.63;;;;;;;13.22;60.19;102187.72;10283494;28;20110;-71
2021/10/18 11:07:12;;;;;;;14.10;6.88;;;;;;;13.30;60.89;102180.78;10277564;28;20079;-74
2021/10/18 11:12:22;;;;;;;15.25;6.63;;;;;;;13.50;60.78;102184.28;10276417;28;20040;-73
2021/10/18 11:17:19;;;;;;;12.40;6.18;;;;;;;13.61;60.70;102174.75;10280976;28;20040;-74
2021/10/18 11:22:34;;;;;;;15.40;6.63;;;;;;;13.64;59.70;102176.88;10278136;28;20051;-74
2021/10/18 11:27:36;;;;;;;14.10;6.63;;;;;;;13.72;60.71;102180.88;10280295;28;20059;-74
2021/10/18 11:32:32;;;;;;;11.60;5.75;;;;;;;13.75;59.41;102180.25;10291474;28;20048;-74
2021/10/18 11:37:49;;;;;;;10.75;5.93;;;;;;;13.81;59.41;102184.53;10276345;28;20041;-75
2021/10/18 11:42:54;;;;;;;13.90;6.43;;;;;;;13.87;58.89;102172.31;10294796;28;20043;-73
2021/10/18 11:47:51;;;;;;;16.48;7.03;;;;;;;13.88;59.17;102155.53;10286275;28;20036;-73
2021/10/18 11:53:02;;;;;;;10.45;6.50;;;;;;;13.98;59.50;102168.25;10288485;28;20072;-75
2021/10/18 11:58:05;;;;;;;12.75;6.53;;;;;;;13.91;57.96;102167.84;10293053;28;20073;-76
2021/10/18 12:03:13;;;;;;;18.60;8.30;;;;;;;13.96;58.86;102156.75;10292436;28;20040;-78
2021/10/18 12:08:17;;;;;;;9.55;6.90;;;;;;;13.92;58.94;102152.16;10289820;28;20707;-77
2021/10/18 12:13:24;;;;;;;11.70;7.00;;;;;;;13.91;59.25;102156.03;10295084;28;20048;-75
2021/10/18 12:18:25;;;;;;;14.75;7.60;;;;;;;13.93;59.10;102151.84;10298770;28;20091;-75
2021/10/18 12:23:34;;;;;;;11.32;7.35;;;;;;;13.87;59.45;102144.81;10294054;28;20063;-75
2021/10/18 12:28:41;;;;;;;13.45;7.88;;;;;;;13.81;60.29;102138.63;10289297;28;20528;-72
2021/10/18 12:33:40;;;;;;;13.88;8.05;;;;;;;13.86;60.46;102137.72;10291864;28;20045;-72
2021/10/18 12:38:37;;;;;;;14.70;8.93;;;;;;;13.87;60.26;102145.63;10292001;28;20060;-72
2021/10/18 12:43:33;;;;;;;11.68;7.88;;;;;;;13.84;59.47;102137.19;10283830;28;20139;-72
2021/10/18 12:48:30;;;;;;;12.07;7.40;;;;;;;13.86;59.95;102127.50;10294419;28;20537;-72
2021/10/18 12:53:30;;;;;;;16.98;7.72;;;;;;;13.88;60.10;102132.72;10295698;28;20517;-73
2021/10/18 12:58:27;;;;;;;14.25;7.82;;;;;;;13.93;60.62;102132.63;10295792;28;20453;-73
2021/10/18 13:03:23;;;;;;;13.65;7.00;;;;;;;13.93;60.62;102127.13;10281698;28;20564;-73
2021/10/18 13:08:23;;;;;;;15.77;8.23;;;;;;;14.00;60.16;102119.25;10296597;28;20041;-73
2021/10/18 13:13:22;;;;;;;15.15;7.15;;;;;;;14.03;60.22;102117.84;10286329;28;20037;-74
2021/10/18 13:18:20;;;;;;;12.57;6.53;;;;;;;14.07;59.89;102111.41;10298683;28;20375;-73
2021/10/18 13:23:21;;;;;;;11.68;6.38;;;;;;;14.13;60.57;102108.53;10288123;28;20041;-74
2021/10/18 13:28:18;;;;;;;14.30;7.10;;;;;;;14.12;59.24;102112.44;10275634;28;20048;-72
2021/10/18 13:33:15;;;;;;;9.68;6.30;;;;;;;14.17;59.92;102104.06;10294059;28;20525;-72
2021/10/18 13:38:11;;;;;;;12.27;6.30;;;;;;;14.32;59.73;102089.97;10292185;28;20083;-72
2021/10/18 13:43:10;;;;;;;9.63;5.82;;;;;;;14.51;59.03;102087.88;10276089;28;20070;-72
2021/10/18 13:48:07;;;;;;;11.05;5.85;;;;;;;14.61;58.20;102088.78;10286887;28;20051;-72
2021/10/18 13:53:03;;;;;;;11.68;6.35;;;;;;;14.59;57.68;102093.78;10287791;28;20044;-72
2021/10/18 13:58:00;;;;;;;13.20;7.75;;;;;;;14.53;58.27;102080.13;10290099;28;20115;-71
2021/10/18 14:02:57;;;;;;;9.32;5.38;;;;;;;14.49;58.89;102078.31;10292070;28;20094;-71
2021/10/18 14:07:53;;;;;;;8.43;4.90;;;;;;;14.42;57.96;102070.47;10283877;28;20048;-71
2021/10/18 14:12:50;;;;;;;9.35;4.25;;;;;;;14.41;58.23;102043.25;10281065;28;20506;-71
2021/10/18 14:17:46;;;;;;;8.70;4.57;;;;;;;14.37;57.66;102040.34;10290794;28;20123;-71
2021/10/18 14:22:45;;;;;;;8.30;4.93;;;;;;;14.39;59.27;102038.09;10278771;28;20045;-72
2021/10/18 14:27:41;;;;;;;8.60;4.15;;;;;;;14.38;60.26;102041.13;10283305;28;20473;-74
2021/10/18 14:32:38;;;;;;;7.32;3.92;;;;;;;14.34;59.29;102043.69;10292543;28;20062;-74
2021/10/18 14:37:36;;;;;;;5.80;3.65;;;;;;;14.30;59.36;102064.72;10276920;28;20094;-74
2021/10/18 14:42:33;;;;;;;8.00;4.22;;;;;;;14.27;59.34;102076.31;10280413;28;20051;-72
2021/10/18 14:47:30;;;;;;;12.75;4.15;;;;;;;14.27;60.76;102079.06;10272775;28;20144;-73
2021/10/18 14:52:26;;;;;;;11.60;4.45;;;;;;;14.29;61.21;102079.56;10280867;28;20045;-73
2021/10/18 14:57:24;;;;;;;10.48;4.18;;;;;;;14.25;61.42;102070.31;10288507;28;20094;-72
2021/10/18 15:02:20;;;;;;;9.15;4.05;;;;;;;14.21;61.01;102061.06;10295108;28;20456;-73
2021/10/18 15:07:18;;;;;;;8.77;4.38;;;;;;;14.18;61.86;102061.66;10293608;28;20055;-73
2021/10/18 15:12:17;;;;;;;7.30;3.10;;;;;;;14.12;61.56;102057.44;10278656;28;20068;-73
2021/10/18 15:17:13;;;;;;;7.55;2.55;;;;;;;14.06;61.61;102060.28;10285482;28;20059;-73
2021/10/18 15:22:14;;;;;;;5.70;2.80;;;;;;;14.01;61.14;102054.06;10286232;28;20083;-73
2021/10/18 15:27:11;;;;;;;9.02;2.50;;;;;;;13.98;60.95;102052.75;10279246;28;20060;-73
2021/10/18 15:32:07;;;;;;;6.75;2.40;;;;;;;13.96;60.79;102054.19;10289427;28;20478;-73
2021/10/18 15:37:04;;;;;;;5.68;2.42;;;;;;;13.90;60.61;102056.22;10288064;28;20127;-73
2021/10/18 15:42:04;;;;;;;7.72;2.65;;;;;;;13.90;60.66;102053.47;10303608;28;20094;-73
2021/10/18 15:47:01;;;;;;;8.82;2.72;;;;;;;13.87;61.18;102056.84;10280852;28;20079;-73
2021/10/18 15:51:58;;;;;;;7.03;2.35;;;;;;;13.83;62.07;102073.16;10306630;28;20040;-73
2021/10/18 15:56:54;;;;;;;5.55;2.53;;;;;;;13.77;62.28;102046.06;10294950;28;20044;-72
2021/10/18 16:01:51;;;;;;;8.93;2.97;;;;;;;13.76;62.81;102044.44;10304275;28;20040;-72
2021/10/18 16:06:47;;;;;;;6.47;2.95;;;;;;;13.70;62.94;102037.44;10289765;28;20056;-72
2021/10/18 16:11:44;;;;;;;8.30;2.78;;;;;;;13.61;65.26;102032.63;10275357;28;20057;-72
2021/10/18 16:16:41;;;;;;;6.32;2.25;;;;;;;13.52;65.77;102031.72;10294314;28;20048;-72
2021/10/18 16:21:37;;;;;;;11.40;2.55;;;;;;;13.44;66.15;102021.47;10282340;28;20045;-72
2021/10/18 16:26:34;;;;;;;9.65;3.35;;;;;;;13.33;66.89;102036.53;10271887;28;20041;-72
2021/10/18 16:31:31;;;;;;;10.55;3.92;;;;;;;13.24;67.27;102050.09;10285005;28;20616;-72
2021/10/18 16:36:28;;;;;;;6.03;3.00;;;;;;;13.24;67.56;102037.19;10283736;28;20045;-72
2021/10/18 16:41:24;;;;;;;8.85;2.55;;;;;;;13.24;67.41;102039.94;10279528;28;20560;-72
2021/10/18 16:46:22;;;;;;;5.82;2.83;;;;;;;13.19;68.53;102036.47;10280048;28;20061;-72
2021/10/18 16:51:19;;;;;;;5.55;2.60;;;;;;;13.11;69.89;102035.25;10284503;28;21837;-72
2021/10/18 16:56:15;;;;;;;8.80;2.78;;;;;;;13.02;69.63;102048.84;10283791;28;20084;-73
2021/10/18 17:01:12;;;;;;;7.20;2.67;;;;;;;12.94;70.45;102043.22;10285631;28;20045;-72
2021/10/18 17:06:10;;;;;;;5.53;2.63;;;;;;;12.86;70.83;102050.25;10270403;28;20045;-72
2021/10/18 17:11:07;;;;;;;7.55;2.67;;;;;;;12.82;71.09;102055.50;10279970;28;20135;-72
2021/10/18 17:16:04;;;;;;;7.13;3.00;;;;;;;12.80;70.89;102044.00;10282058;28;20072;-74
2021/10/18 17:21:02;;;;;;;5.68;2.95;;;;;;;12.78;71.31;102046.22;10284007;28;20041;-73
2021/10/18 17:26:00;;;;;;;9.52;2.83;;;;;;;12.72;71.65;102041.97;10282514;28;20048;-72
2021/10/18 17:30:57;;;;;;;10.07;4.15;;;;;;;12.69;72.12;102045.28;10282750;28;20136;-72
2021/10/18 17:35:54;;;;;;;9.77;3.78;;;;;;;12.65;71.73;102055.25;10290780;28;20092;-73
2021/10/18 17:40:51;;;;;;;10.57;3.88;;;;;;;12.60;72.26;102045.19;10282185;28;20041;-72
2021/10/18 17:45:48;;;;;;;8.02;3.95;;;;;;;12.58;72.41;102055.63;10285796;28;20044;-71
2021/10/18 17:50:44;;;;;;;7.30;3.63;;;;;;;12.56;72.73;102068.03;10273820;28;20501;-72
2021/10/18 17:55:41;;;;;;;8.77;4.55;;;;;;;12.56;72.32;102063.34;10279850;28;20069;-71
2021/10/18 18:00:37;;;;;;;9.52;4.65;;;;;;;12.59;72.68;102067.41;10283490;28;20045;-72
2021/10/18 18:05:34;;;;;;;9.00;5.25;;;;;;;12.59;73.32;102078.38;10276279;28;20040;-72
2021/10/18 18:10:30;;;;;;;13.38;5.80;;;;;;;12.57;73.32;102091.59;10287699;28;20070;-73
2021/10/18 18:15:28;;;;;;;14.05;5.03;;;;;;;12.62;72.56;102095.09;10266871;28;20098;-73
2021/10/18 18:20:25;;;;;;;11.15;5.05;;;;;;;12.59;72.74;102094.84;10270551;28;21778;-74
2021/10/18 18:25:22;;;;;;;13.80;5.60;;;;;;;12.60;72.63;102107.44;10271926;28;20579;-71
2021/10/18 18:30:21;;;;;;;11.23;4.80;;;;;;;12.63;73.35;102084.91;10278467;28;20040;-73
2021/10/18 18:35:18;;;;;;;11.45;5.03;;;;;;;12.67;72.49;102069.50;10283409;28;20455;-73
2021/10/18 18:40:18;;;;;;;9.77;4.72;;;;;;;12.66;72.32;102054.13;10243887;28;20041;-72
2021/10/18 18:45:16;;;;;;;13.32;5.45;;;;;;;12.68;72.43;102032.69;10271344;28;20087;-71
2021/10/18 18:50:15;;;;;;;9.32;5.07;;;;;;;12.62;72.21;102017.41;10274581;28;20052;-73
2021/10/18 18:55:13;;;;;;;11.82;5.50;;;;;;;12.58;72.18;102010.94;10293182;28;20049;-71
2021/10/18 19:00:12;;;;;;;7.93;4.07;;;;;;;12.50;72.84;102019.81;10296756;28;20490;-72
2021/10/18 19:05:10;;;;;;;10.88;4.20;;;;;;;12.51;72.44;102018.69;10274463;28;20080;-72
2021/10/18 19:10:08;;;;;;;6.60;3.85;;;;;;;12.48;72.92;102028.34;10296094;28;20040;-72
2021/10/18 19:15:05;;;;;;;8.85;3.80;;;;;;;12.43;72.75;102026.50;10294289;28;20040;-72
2021/10/18 19:20:08;;;;;;;9.25;4.50;;;;;;;12.38;72.67;102023.84;10284388;28;20041;-71
2021/10/18 19:25:05;;;;;;;9.32;5.28;;;;;;;12.36;72.49;102015.09;10282935;28;20048;-72
2021/10/18 19:30:03;;;;;;;10.55;4.57;;;;;;;12.33;72.91;102009.41;10287701;28;20169;-68
2021/10/18 19:35:00;;;;;;;9.90;4.60;;;;;;;12.27;73.03;102005.91;10289372;28;20068;-68
2021/10/18 19:39:56;;;;;;;8.40;4.57;;;;;;;12.20;73.59;102010.94;10297866;28;20072;-69
2021/10/18 19:44:53;;;;;;;9.90;5.57;;;;;;;12.17;73.81;102017.84;10287863;28;20534;-68
2021/10/18 19:49:50;;;;;;;10.25;4.63;;;;;;;12.10;74.18;102016.59;10294136;28;20064;-69
2021/10/18 19:54:46;;;;;;;11.43;5.00;;;;;;;12.10;73.98;102013.84;10293515;28;20041;-69
2021/10/18 19:59:44;;;;;;;11.45;5.00;;;;;;;12.04;74.40;101995.84;10280673;28;20076;-68
2021/10/18 20:04:40;;;;;;;11.60;4.88;;;;;;;11.98;74.61;102009.63;10280344;28;20564;-69
2021/10/18 20:09:41;;;;;;;8.68;4.72;;;;;;;11.94;75.41;102014.06;10250289;28;1027461;-70
2021/10/18 20:14:37;;;;;;;9.73;4.53;;;;;;;11.93;75.32;102012.44;10292548;28;20452;-68
2021/10/18 20:19:47;;;;;;;7.70;4.50;;;;;;;11.93;75.26;102012.44;10294765;28;20087;-68
2021/10/18 20:24:43;;;;;;;10.73;4.93;;;;;;;11.88;75.29;102003.47;10298477;28;20387;-69
2021/10/18 20:29:43;;;;;;;10.48;5.70;;;;;;;11.83;75.49;102007.06;10286670;28;20045;-69
2021/10/18 20:34:49;;;;;;;11.07;5.50;;;;;;;11.79;75.85;102006.03;10297154;28;20036;-68
2021/10/18 20:39:45;;;;;;;9.35;5.60;;;;;;;11.76;75.90;101995.66;10264423;28;20037;-69
2021/10/18 20:44:43;;;;;;;12.88;5.70;;;;;;;11.76;75.40;101979.22;10300971;28;20037;-68
2021/10/18 20:49:39;;;;;;;11.55;6.15;;;;;;;11.73;76.21;101979.81;10287075;28;20068;-68
2021/10/18 20:54:37;;;;;;;10.45;5.57;;;;;;;11.72;75.96;101983.63;10290553;28;20087;-66
2021/10/18 20:59:41;;;;;;;8.80;4.95;;;;;;;11.67;76.10;101987.25;10299454;28;20068;-69
2021/10/18 21:04:38;;;;;;;11.90;5.18;;;;;;;11.62;76.33;101978.31;10297434;28;20498;-69
2021/10/18 21:09:35;;;;;;;9.65;6.28;;;;;;;11.57;76.41;101974.53;10263318;28;20033;-69
2021/10/18 21:14:31;;;;;;;9.57;5.18;;;;;;;11.56;76.76;101975.63;10262313;28;20064;-69
2021/10/18 21:19:28;;;;;;;10.38;5.65;;;;;;;11.55;76.46;101957.56;10257740;28;20102;-70
2021/10/18 21:24:24;;;;;;;13.40;7.20;;;;;;;11.50;76.81;101938.47;10294727;28;20052;-69
2021/10/18 21:29:21;;;;;;;10.23;6.13;;;;;;;11.44;77.13;101964.31;10285312;28;20080;-69
2021/10/18 21:34:17;;;;;;;13.60;5.63;;;;;;;11.40;76.83;101960.50;10289155;28;20079;-69
2021/10/18 21:39:13;;;;;;;8.77;5.80;;;;;;;11.33;77.46;101960.06;10293986;28;20127;-69
2021/10/18 21:44:10;;;;;;;9.02;4.95;;;;;;;11.33;77.36;101960.06;10259886;28;20088;-67
2021/10/18 21:49:07;;;;;;;10.60;6.10;;;;;;;11.32;77.45;101942.78;10259904;28;20045;-69
2021/10/18 21:54:05;;;;;;;9.18;5.60;;;;;;;11.32;77.06;101928.28;10253352;28;20527;-68
2021/10/18 21:59:01;;;;;;;8.43;5.35;;;;;;;11.24;78.13;101928.94;10256202;28;20083;-69
2021/10/18 22:03:58;;;;;;;8.30;4.95;;;;;;;11.23;77.94;101943.72;10269674;28;20518;-68
2021/10/18 22:08:54;;;;;;;12.98;5.65;;;;;;;11.18;78.12;101968.44;10262822;28;20049;-68
2021/10/18 22:13:51;;;;;;;9.27;5.10;;;;;;;11.10;78.63;101972.63;10263273;28;20131;-68
2021/10/18 22:18:48;;;;;;;8.30;5.57;;;;;;;11.08;78.77;101967.44;10267808;28;20139;-68
2021/10/18 22:23:44;;;;;;;9.63;5.25;;;;;;;11.01;79.06;101956.03;10268246;28;20079;-69
2021/10/18 22:28:41;;;;;;;8.70;5.35;;;;;;;10.94;79.34;101952.81;10257817;28;20091;-69
2021/10/18 22:33:37;;;;;;;9.50;6.25;;;;;;;10.90;79.33;101962.72;10266886;28;20076;-69
2021/10/18 22:38:33;;;;;;;10.38;6.40;;;;;;;10.89;79.43;101955.63;10250946;28;20076;-68
2021/10/18 22:43:30;;;;;;;13.57;6.78;;;;;;;10.91;78.79;101934.25;10256669;28;20064;-68
2021/10/18 22:48:27;;;;;;;11.88;6.95;;;;;;;10.87;78.52;101914.06;10254157;28;20048;-68
2021/10/18 22:53:23;;;;;;;11.63;6.13;;;;;;;10.87;79.30;101914.06;10255675;28;20073;-69
2021/10/18 22:58:20;;;;;;;11.05;6.28;;;;;;;10.79;79.43;101951.06;10264410;28;20085;-69
2021/10/18 23:03:16;;;;;;;10.68;6.10;;;;;;;10.77;79.78;101958.75;10273800;28;20506;-69
2021/10/18 23:08:13;;;;;;;9.20;5.90;;;;;;;10.82;79.97;101949.69;10276830;28;20052;-69
2021/10/18 23:13:09;;;;;;;12.35;6.38;;;;;;;10.86;80.04;101926.91;10264628;28;20091;-69
2021/10/18 23:18:06;;;;;;;9.52;5.82;;;;;;;10.89;79.46;101923.59;10267116;28;20096;-68
2021/10/18 23:23:02;;;;;;;9.52;6.47;;;;;;;10.90;79.59;101919.75;10264059;28;20099;-69
2021/10/18 23:27:59;;;;;;;10.10;5.85;;;;;;;10.89;79.75;101900.91;10259221;28;20128;-69
2021/10/18 23:32:55;;;;;;;10.07;6.43;;;;;;;10.87;79.43;101892.16;10272764;28;20045;-69
2021/10/18 23:37:52;;;;;;;10.70;6.13;;;;;;;10.84;79.11;101892.75;10280235;28;20128;-68
2021/10/18 23:42:49;;;;;;;10.35;7.00;;;;;;;10.83;79.54;101896.56;10289426;28;20072;-68